MSC Krittika — H3RV — position and weather

sailwx.info

Track history (hours):
 
Tides and Currents Weather Stations Pressure Air Temp Water Temp Dewpoint Dewpoint Depression Visibility Wind Speed Wind Dir Waves Ship Positions

MSC Krittika

Last reported at 2015-Mar-02 20:04 UTC. Time now 2015-Mar-04 00:05 UTC.
Position S 34°08' E 151°34'.

Length 202 m; draft 9.6 m.

Type: Ship (hazmat cat A). MMSI: 354725000.

Date/timePositionNaut miles runAvg speedWind from/ knotsBaromVisibWave heightAir tempDewpointWater temp
2015-Mar-02 20:04S 34°08' E 151°34'0 0.6
2015-Mar-02 19:23S 34°07' E 151°33'110 2.4
2015-Feb-28 21:31S 35°56' E 151°17'7 3.4
2015-Feb-28 19:33S 35°50' E 151°17'26 4.0
2015-Feb-28 13:03S 35°23' E 151°15'10 3.8
2015-Feb-28 10:33S 35°14' E 151°15'127 3.8
2015-Feb-27 01:10S 37°11' E 150°15'1015.7
2015-Feb-27 00:32S 37°20' E 150°10'1616.0
2015-Feb-26 23:33S 37°35' E 150°03'1515.2
2015-Feb-26 22:33S 37°48' E 149°53'1717.2
2015-Feb-26 21:33S 37°58' E 149°35'2317.3
2015-Feb-26 20:11S 38°13' E 149°12'1116.8
2015-Feb-26 19:33S 38°19' E 149°01'1816.6
2015-Feb-26 18:29S 38°30' E 148°43'1717.2
2015-Feb-26 17:31S 38°40' E 148°26'1816.4
2015-Feb-26 16:24S 38°49' E 148°06'1616.7
2015-Feb-26 15:27S 38°55' E 147°46'1517.2
2015-Feb-26 14:33S 39°00' E 147°28'1817.7
2015-Feb-26 13:31S 39°07' E 147°06'1717.8
2015-Feb-26 12:33S 39°13' E 146°45'1717.4
2015-Feb-26 11:33S 39°17' E 146°23'1716.9
2015-Feb-26 10:33S 39°12' E 146°03'1717.1
2015-Feb-26 09:33S 39°04' E 145°43'128 3.9
2015-Feb-25 00:17S 38°51' E 142°59'1215.9
2015-Feb-24 23:32S 38°49' E 142°44'1616.2
2015-Feb-24 22:33S 38°43' E 142°24'1615.8
2015-Feb-24 21:33S 38°38' E 142°05'1212.4
2015-Feb-24 20:34S 38°34' E 141°50'282 6.1
2015-Feb-22 22:33S 34°52' E 138°14'103 9.9
2015-Feb-22 12:12S 35°29' E 136°17'1116.8
2015-Feb-22 11:32S 35°29' E 136°03'  
Track history (hours):
 
Tides and Currents Weather Stations Pressure Air Temp Water Temp Dewpoint Dewpoint Depression Visibility Wind Speed Wind Dir Waves Ship Positions

MSC Krittika

Last reported at 2015-Mar-02 20:04 UTC. Time now 2015-Mar-04 00:05 UTC.
Position S 34°08' E 151°34'.

Length 202 m; draft 9.6 m.

Type: Ship (hazmat cat A). MMSI: 354725000.

Date/timePositionNaut miles runAvg speedWind from/ knotsBaromVisibWave heightAir tempDewpointWater temp
2015-Mar-02 20:04S 34°08' E 151°34'0 0.6
2015-Mar-02 19:23S 34°07' E 151°33'110 2.4
2015-Feb-28 21:31S 35°56' E 151°17'7 3.4
2015-Feb-28 19:33S 35°50' E 151°17'26 4.0
2015-Feb-28 13:03S 35°23' E 151°15'10 3.8
2015-Feb-28 10:33S 35°14' E 151°15'127 3.8
2015-Feb-27 01:10S 37°11' E 150°15'1015.7
2015-Feb-27 00:32S 37°20' E 150°10'1616.0
2015-Feb-26 23:33S 37°35' E 150°03'1515.2
2015-Feb-26 22:33S 37°48' E 149°53'1717.2
2015-Feb-26 21:33S 37°58' E 149°35'2317.3
2015-Feb-26 20:11S 38°13' E 149°12'1116.8
2015-Feb-26 19:33S 38°19' E 149°01'1816.6
2015-Feb-26 18:29S 38°30' E 148°43'1717.2
2015-Feb-26 17:31S 38°40' E 148°26'1816.4
2015-Feb-26 16:24S 38°49' E 148°06'1616.7
2015-Feb-26 15:27S 38°55' E 147°46'1517.2
2015-Feb-26 14:33S 39°00' E 147°28'1817.7
2015-Feb-26 13:31S 39°07' E 147°06'1717.8
2015-Feb-26 12:33S 39°13' E 146°45'1717.4
2015-Feb-26 11:33S 39°17' E 146°23'1716.9
2015-Feb-26 10:33S 39°12' E 146°03'1717.1
2015-Feb-26 09:33S 39°04' E 145°43'128 3.9
2015-Feb-25 00:17S 38°51' E 142°59'1215.9
2015-Feb-24 23:32S 38°49' E 142°44'1616.2
2015-Feb-24 22:33S 38°43' E 142°24'1615.8
2015-Feb-24 21:33S 38°38' E 142°05'1212.4
2015-Feb-24 20:34S 38°34' E 141°50'282 6.1
2015-Feb-22 22:33S 34°52' E 138°14'103 9.9
2015-Feb-22 12:12S 35°29' E 136°17'1116.8
2015-Feb-22 11:32S 35°29' E 136°03'  

Dump ship's entire track history